Time;durP1;ratioP1;P1;durP2;ratioP2;P2;SDS_P1;SDS_P2;PMS_P1;PMS_P2;Temp;Humidity;BMP_temperature;BMP_pressure;BME280_temperature;BME280_humidity;BME280_pressure;Samples;Min_cycle;Max_cycle;Signal;HPM_P1;HPM_P2
2022/10/11 00:00:39;;;;;;;7.10;5.20;;;;;;;;;;5097954;28;20716;-64
2022/10/11 00:03:07;;;;;;;10.70;5.23;;;;;;;;;;5097681;28;20206;-64
2022/10/11 00:05:35;;;;;;;11.63;5.43;;;;;;;;;;5097379;28;20216;-64
2022/10/11 00:08:04;;;;;;;7.07;4.77;;;;;;;;;;5097694;28;20211;-64
2022/10/11 00:10:32;;;;;;;10.93;5.30;;;;;;;;;;5097964;28;20210;-63
2022/10/11 00:13:00;;;;;;;8.87;4.90;;;;;;;;;;5097971;28;20239;-64
2022/10/11 00:15:29;;;;;;;9.57;5.10;;;;;;;;;;5097958;28;20213;-64
2022/10/11 00:17:57;;;;;;;9.07;4.77;;;;;;;;;;5097982;28;20218;-64
2022/10/11 00:20:31;;;;;;;7.57;4.77;;;;;;;;;;5097777;28;20286;-64
2022/10/11 00:22:59;;;;;;;6.73;4.67;;;;;;;;;;5097537;28;20217;-64
2022/10/11 00:25:27;;;;;;;7.73;5.50;;;;;;;;;;5097447;28;20217;-64
2022/10/11 00:27:55;;;;;;;6.27;5.50;;;;;;;;;;5097875;28;20202;-64
2022/10/11 00:30:23;;;;;;;8.33;5.13;;;;;;;;;;5097855;28;20204;-64
2022/10/11 00:32:52;;;;;;;12.83;8.10;;;;;;;;;;5097768;28;20209;-64
2022/10/11 00:35:20;;;;;;;15.27;9.90;;;;;;;;;;5097540;28;20225;-64
2022/10/11 00:37:48;;;;;;;17.17;8.80;;;;;;;;;;5097560;28;20201;-64
2022/10/11 00:40:17;;;;;;;10.57;6.33;;;;;;;;;;5097353;28;20727;-64
2022/10/11 00:42:46;;;;;;;20.47;6.60;;;;;;;;;;5097692;28;20209;-64
2022/10/11 00:45:32;;;;;;;9.73;5.47;;;;;;;;;;5097331;28;20233;-64
2022/10/11 00:48:03;;;;;;;9.43;5.30;;;;;;;;;;5097339;28;20209;-64
2022/10/11 00:50:33;;;;;;;11.97;5.23;;;;;;;;;;5094514;28;20204;-64
2022/10/11 00:53:03;;;;;;;8.47;4.93;;;;;;;;;;5096737;28;20238;-64
2022/10/11 00:55:33;;;;;;;8.43;4.67;;;;;;;;;;5097660;28;20206;-64
2022/10/11 00:58:01;;;;;;;9.00;4.83;;;;;;;;;;5097407;28;20205;-64
2022/10/11 01:00:29;;;;;;;13.23;5.33;;;;;;;;;;5097024;28;20689;-64
2022/10/11 01:02:58;;;;;;;11.47;4.90;;;;;;;;;;5097342;28;20202;-64
2022/10/11 01:05:27;;;;;;;11.63;5.73;;;;;;;;;;5096948;28;20197;-64
2022/10/11 01:07:57;;;;;;;7.43;4.80;;;;;;;;;;5096935;28;20209;-64
2022/10/11 01:10:25;;;;;;;9.27;5.23;;;;;;;;;;5096911;28;20620;-64
2022/10/11 01:12:57;;;;;;;11.93;5.37;;;;;;;;;;5097316;28;20197;-64
2022/10/11 01:15:30;;;;;;;9.53;4.90;;;;;;;;;;5097878;28;20576;-64
2022/10/11 01:18:01;;;;;;;8.13;4.83;;;;;;;;;;5100981;28;20215;-64
2022/10/11 01:20:35;;;;;;;14.23;5.63;;;;;;;;;;5101025;28;20232;-63
2022/10/11 01:23:14;;;;;;;8.93;4.77;;;;;;;;;;5100501;28;20212;-64
2022/10/11 01:25:48;;;;;;;8.97;4.83;;;;;;;;;;5100719;28;20210;-64
2022/10/11 01:28:27;;;;;;;9.23;4.73;;;;;;;;;;5101124;28;20210;-64
2022/10/11 01:31:01;;;;;;;9.40;4.90;;;;;;;;;;5101026;28;20224;-64
2022/10/11 01:33:34;;;;;;;8.77;4.87;;;;;;;;;;5100563;28;20225;-64
2022/10/11 01:36:05;;;;;;;16.70;5.87;;;;;;;;;;5100680;28;20653;-64
2022/10/11 01:38:37;;;;;;;7.27;4.60;;;;;;;;;;5100481;28;20213;-64
2022/10/11 01:41:07;;;;;;;12.27;5.20;;;;;;;;;;5100386;28;20572;-64
2022/10/11 01:43:37;;;;;;;10.07;5.30;;;;;;;;;;5100586;28;20229;-63
2022/10/11 01:46:07;;;;;;;17.70;6.03;;;;;;;;;;5100638;28;20291;-64
2022/10/11 01:48:46;;;;;;;10.73;5.20;;;;;;;;;;5100348;28;20571;-64
2022/10/11 01:51:15;;;;;;;10.40;4.47;;;;;;;;;;5100497;28;20208;-64
2022/10/11 01:53:59;;;;;;;10.73;5.37;;;;;;;;;;5099816;28;20768;-64
2022/10/11 01:56:32;;;;;;;11.27;5.73;;;;;;;;;;5100109;28;20205;-64
2022/10/11 01:59:12;;;;;;;11.23;4.77;;;;;;;;;;5100516;28;20205;-63
2022/10/11 02:01:47;;;;;;;10.80;5.33;;;;;;;;;;5100080;28;20718;-64
2022/10/11 02:04:17;;;;;;;9.87;5.63;;;;;;;;;;5100178;28;20220;-64
2022/10/11 02:06:49;;;;;;;12.30;5.90;;;;;;;;;;5100020;28;20217;-63
2022/10/11 02:09:21;;;;;;;9.90;4.77;;;;;;;;;;5099942;28;20210;-63
2022/10/11 02:11:49;;;;;;;11.13;5.93;;;;;;;;;;5099897;28;20205;-64
2022/10/11 02:14:18;;;;;;;7.20;4.80;;;;;;;;;;5099767;28;20237;-63
2022/10/11 02:16:49;;;;;;;9.50;5.20;;;;;;;;;;5099823;28;20213;-63
2022/10/11 02:19:19;;;;;;;14.73;5.87;;;;;;;;;;5099766;28;20216;-64
2022/10/11 02:21:49;;;;;;;9.53;5.43;;;;;;;;;;5099594;28;20233;-63
2022/10/11 02:24:18;;;;;;;10.17;4.70;;;;;;;;;;5099505;28;20251;-64
2022/10/11 02:26:51;;;;;;;11.67;5.17;;;;;;;;;;5098947;28;20666;-64
2022/10/11 02:29:20;;;;;;;10.03;4.53;;;;;;;;;;5099875;28;20210;-64
2022/10/11 02:31:50;;;;;;;9.63;5.30;;;;;;;;;;5099744;28;20205;-63
2022/10/11 02:34:20;;;;;;;14.77;6.40;;;;;;;;;;5099411;28;20705;-64
2022/10/11 02:36:51;;;;;;;10.03;5.60;;;;;;;;;;5099304;28;20221;-63
2022/10/11 02:39:23;;;;;;;10.47;5.13;;;;;;;;;;5099740;28;20205;-64
2022/10/11 02:41:52;;;;;;;13.07;4.90;;;;;;;;;;5099377;28;20229;-64
2022/10/11 02:44:23;;;;;;;12.63;4.97;;;;;;;;;;5099230;28;20684;-63
2022/10/11 02:46:53;;;;;;;12.60;5.23;;;;;;;;;;5099454;28;20212;-64
2022/10/11 02:49:21;;;;;;;11.67;4.77;;;;;;;;;;5099642;28;20209;-63
2022/10/11 02:51:49;;;;;;;9.33;4.70;;;;;;;;;;5098755;28;20541;-63
2022/10/11 02:54:17;;;;;;;10.03;5.70;;;;;;;;;;5098918;28;20241;-63
2022/10/11 02:56:45;;;;;;;10.40;4.83;;;;;;;;;;5099084;28;20209;-63
2022/10/11 02:59:13;;;;;;;22.57;5.43;;;;;;;;;;5099192;28;20213;-63
2022/10/11 03:01:41;;;;;;;12.67;5.10;;;;;;;;;;5099172;28;20236;-63
2022/10/11 03:04:10;;;;;;;11.77;4.93;;;;;;;;;;5098726;28;20684;-63
2022/10/11 03:06:38;;;;;;;25.43;8.40;;;;;;;;;;5098546;28;20571;-65
2022/10/11 03:09:06;;;;;;;19.93;5.63;;;;;;;;;;5098453;28;20569;-64
2022/10/11 03:11:34;;;;;;;10.37;5.40;;;;;;;;;;5098761;28;20209;-64
2022/10/11 03:14:02;;;;;;;16.83;5.87;;;;;;;;;;5098374;28;20222;-64
2022/10/11 03:16:30;;;;;;;14.87;7.13;;;;;;;;;;5098514;28;20213;-64
2022/10/11 03:18:58;;;;;;;13.23;5.90;;;;;;;;;;5098581;28;20205;-64
2022/10/11 03:21:27;;;;;;;8.83;4.53;;;;;;;;;;5098573;28;20221;-64
2022/10/11 03:23:55;;;;;;;7.80;4.90;;;;;;;;;;5098351;28;20221;-64
2022/10/11 03:26:23;;;;;;;8.60;4.93;;;;;;;;;;5098621;28;20205;-64
2022/10/11 03:28:51;;;;;;;11.50;5.43;;;;;;;;;;5098644;28;20209;-64
2022/10/11 03:31:20;;;;;;;15.90;5.37;;;;;;;;;;5098547;28;20244;-63
2022/10/11 03:33:48;;;;;;;10.50;5.17;;;;;;;;;;5098017;28;20705;-64
2022/10/11 03:36:16;;;;;;;8.47;4.93;;;;;;;;;;5098444;28;20210;-64
2022/10/11 03:38:46;;;;;;;9.60;4.90;;;;;;;;;;5097806;28;20209;-64
2022/10/11 03:41:14;;;;;;;11.70;5.23;;;;;;;;;;5097842;28;20216;-64
2022/10/11 03:43:42;;;;;;;7.67;4.90;;;;;;;;;;5097929;28;20538;-64
2022/10/11 03:46:09;;;;;;;9.93;5.77;;;;;;;;;;5098311;28;20205;-64
2022/10/11 03:48:37;;;;;;;9.30;5.13;;;;;;;;;;5098165;28;20660;-64
2022/10/11 03:51:06;;;;;;;8.17;4.73;;;;;;;;;;5097985;28;20323;-64
2022/10/11 03:53:33;;;;;;;7.40;4.90;;;;;;;;;;5097615;28;20247;-64
2022/10/11 03:56:03;;;;;;;7.93;5.03;;;;;;;;;;5097086;28;20213;-64
2022/10/11 03:58:35;;;;;;;14.53;4.97;;;;;;;;;;5096751;28;20213;-64
2022/10/11 04:01:03;;;;;;;10.17;5.23;;;;;;;;;;5097468;28;20201;-64
2022/10/11 04:03:31;;;;;;;10.23;5.20;;;;;;;;;;5097569;28;20703;-64
2022/10/11 04:05:59;;;;;;;7.97;5.27;;;;;;;;;;5098037;28;20212;-64
2022/10/11 04:08:27;;;;;;;13.47;5.03;;;;;;;;;;5097772;28;20221;-64
2022/10/11 04:10:55;;;;;;;9.27;5.20;;;;;;;;;;5097864;28;20205;-64
2022/10/11 04:13:24;;;;;;;11.30;4.97;;;;;;;;;;5097928;28;20309;-64
2022/10/11 04:15:52;;;;;;;10.00;4.83;;;;;;;;;;5090541;28;20195;-64
2022/10/11 04:18:20;;;;;;;9.03;5.07;;;;;;;;;;5086602;28;20205;-64
2022/10/11 04:20:48;;;;;;;9.90;5.43;;;;;;;;;;5095856;28;20209;-64
2022/10/11 04:23:16;;;;;;;13.03;5.43;;;;;;;;;;5095479;28;20236;-64
2022/10/11 04:25:44;;;;;;;10.17;6.70;;;;;;;;;;5095783;28;20209;-64
2022/10/11 04:28:12;;;;;;;9.57;5.10;;;;;;;;;;5095973;28;20205;-65
2022/10/11 04:30:41;;;;;;;6.83;4.50;;;;;;;;;;5097093;28;20645;-64
2022/10/11 04:33:10;;;;;;;10.50;5.50;;;;;;;;;;5097350;28;20575;-63
2022/10/11 04:35:38;;;;;;;10.87;5.03;;;;;;;;;;5097685;28;20210;-64
2022/10/11 04:38:06;;;;;;;10.77;5.43;;;;;;;;;;5097300;28;20207;-63
2022/10/11 04:40:34;;;;;;;9.50;4.97;;;;;;;;;;5097330;28;20677;-63
2022/10/11 04:43:02;;;;;;;12.03;6.53;;;;;;;;;;5097441;28;20232;-63
2022/10/11 04:45:30;;;;;;;9.60;5.10;;;;;;;;;;5097750;28;20202;-64
2022/10/11 04:47:59;;;;;;;12.80;5.43;;;;;;;;;;5097370;28;20664;-62
2022/10/11 04:50:27;;;;;;;11.27;5.47;;;;;;;;;;5106354;28;20573;-62
2022/10/11 04:52:55;;;;;;;8.20;5.03;;;;;;;;;;5105842;28;20329;-64
2022/10/11 04:55:23;;;;;;;7.87;4.70;;;;;;;;;;5101624;28;20217;-64
2022/10/11 04:57:51;;;;;;;10.10;4.80;;;;;;;;;;5101320;28;20205;-64
2022/10/11 05:00:19;;;;;;;10.33;5.40;;;;;;;;;;5101513;28;20206;-63
2022/10/11 05:02:47;;;;;;;9.83;5.00;;;;;;;;;;5101416;28;20221;-63
2022/10/11 05:05:17;;;;;;;9.70;5.03;;;;;;;;;;5101402;28;20217;-63
2022/10/11 05:07:44;;;;;;;10.47;5.60;;;;;;;;;;5101073;28;20220;-63
2022/10/11 05:10:13;;;;;;;9.47;7.07;;;;;;;;;;5101491;28;20209;-63
2022/10/11 05:12:41;;;;;;;10.30;6.77;;;;;;;;;;5101071;28;20213;-63
2022/10/11 05:15:09;;;;;;;12.00;7.10;;;;;;;;;;5100955;28;20237;-64
2022/10/11 05:17:37;;;;;;;17.60;7.57;;;;;;;;;;5101073;28;20210;-63
2022/10/11 05:20:06;;;;;;;15.43;8.37;;;;;;;;;;5100806;28;20205;-63
2022/10/11 05:22:35;;;;;;;15.07;7.30;;;;;;;;;;5100814;28;20225;-63
2022/10/11 05:25:03;;;;;;;12.60;6.87;;;;;;;;;;5100525;28;20604;-63
2022/10/11 05:27:31;;;;;;;19.07;9.07;;;;;;;;;;5100883;28;20212;-64
2022/10/11 05:29:59;;;;;;;14.73;8.00;;;;;;;;;;5100673;28;20219;-63
2022/10/11 05:32:27;;;;;;;15.90;8.50;;;;;;;;;;5100590;28;20604;-63
2022/10/11 05:34:55;;;;;;;12.97;8.27;;;;;;;;;;5100516;28;20244;-64
2022/10/11 05:37:23;;;;;;;16.30;8.57;;;;;;;;;;5100472;28;20213;-63
2022/10/11 05:39:52;;;;;;;16.63;8.93;;;;;;;;;;5100659;28;20213;-63
2022/10/11 05:42:20;;;;;;;14.90;9.00;;;;;;;;;;5100223;28;20216;-64
2022/10/11 05:44:48;;;;;;;16.73;8.93;;;;;;;;;;5100722;28;20229;-64
2022/10/11 05:47:16;;;;;;;18.10;10.00;;;;;;;;;;5100724;28;20216;-65
2022/10/11 05:49:44;;;;;;;18.83;9.07;;;;;;;;;;5100557;28;20201;-64
2022/10/11 05:52:12;;;;;;;14.57;8.97;;;;;;;;;;5100186;28;20209;-65
2022/10/11 05:54:40;;;;;;;15.77;9.53;;;;;;;;;;5100530;28;20224;-62
2022/10/11 05:57:09;;;;;;;12.83;8.83;;;;;;;;;;5100254;28;20205;-65
2022/10/11 05:59:37;;;;;;;13.30;8.93;;;;;;;;;;5100122;28;20216;-65
2022/10/11 06:02:05;;;;;;;14.20;9.20;;;;;;;;;;5099075;28;20213;-64
2022/10/11 06:04:36;;;;;;;16.10;10.47;;;;;;;;;;5099987;28;20593;-63
2022/10/11 06:07:03;;;;;;;15.30;9.47;;;;;;;;;;5099927;28;20209;-64
2022/10/11 06:09:33;;;;;;;21.37;14.07;;;;;;;;;;5100267;28;20217;-64
2022/10/11 06:12:01;;;;;;;16.57;8.77;;;;;;;;;;5099844;28;20201;-63
2022/10/11 06:14:31;;;;;;;15.00;10.27;;;;;;;;;;5099903;28;20222;-63
2022/10/11 06:16:59;;;;;;;17.03;9.73;;;;;;;;;;5089638;28;20197;-62
2022/10/11 06:19:27;;;;;;;15.53;9.90;;;;;;;;;;5099155;28;20217;-63
2022/10/11 06:21:54;;;;;;;17.43;11.20;;;;;;;;;;5099271;28;20205;-63
2022/10/11 06:24:22;;;;;;;15.37;10.37;;;;;;;;;;5098979;28;20229;-63
2022/10/11 06:26:50;;;;;;;18.93;10.33;;;;;;;;;;5099532;28;20211;-62
2022/10/11 06:29:18;;;;;;;18.90;10.53;;;;;;;;;;5099452;28;20260;-63
2022/10/11 06:31:49;;;;;;;16.87;9.97;;;;;;;;;;5099209;28;20206;-64
2022/10/11 06:34:17;;;;;;;17.77;10.17;;;;;;;;;;5099264;28;20754;-65
2022/10/11 06:36:45;;;;;;;14.13;9.93;;;;;;;;;;5098852;28;20592;-63
2022/10/11 06:39:13;;;;;;;16.93;10.73;;;;;;;;;;5099158;28;20228;-63
2022/10/11 06:41:41;;;;;;;15.37;9.93;;;;;;;;;;5099281;28;20206;-63
2022/10/11 06:44:10;;;;;;;16.73;9.67;;;;;;;;;;5099490;28;20233;-64
2022/10/11 06:46:41;;;;;;;13.30;9.10;;;;;;;;;;5099470;28;20206;-62
2022/10/11 06:49:10;;;;;;;18.20;10.37;;;;;;;;;;5099452;28;20216;-63
2022/10/11 06:51:38;;;;;;;15.47;9.20;;;;;;;;;;5099114;28;20209;-64
2022/10/11 06:54:06;;;;;;;14.93;9.83;;;;;;;;;;5098806;28;20236;-64
2022/10/11 06:56:34;;;;;;;16.27;9.33;;;;;;;;;;5099271;28;20205;-63
2022/10/11 06:59:02;;;;;;;16.73;10.10;;;;;;;;;;5099192;28;20206;-64
2022/10/11 07:01:31;;;;;;;15.43;9.50;;;;;;;;;;5099090;28;20298;-64
2022/10/11 07:04:00;;;;;;;13.50;9.53;;;;;;;;;;5099015;28;20274;-64
2022/10/11 07:06:30;;;;;;;16.23;8.73;;;;;;;;;;5098705;28;20213;-63
2022/10/11 07:08:59;;;;;;;17.13;10.27;;;;;;;;;;5098915;28;20216;-63
2022/10/11 07:11:27;;;;;;;18.23;9.17;;;;;;;;;;5098959;28;20209;-64
2022/10/11 07:13:56;;;;;;;13.47;8.90;;;;;;;;;;5098627;28;20224;-64
2022/10/11 07:16:25;;;;;;;14.70;8.83;;;;;;;;;;5098601;28;20206;-63
2022/10/11 07:18:53;;;;;;;17.10;8.80;;;;;;;;;;5098876;28;20209;-63
2022/10/11 07:21:27;;;;;;;15.60;8.97;;;;;;;;;;5098304;28;20546;-64
2022/10/11 07:23:57;;;;;;;11.43;8.23;;;;;;;;;;5098432;28;20229;-63
2022/10/11 07:26:25;;;;;;;17.20;8.73;;;;;;;;;;5098456;28;20685;-64
2022/10/11 07:28:53;;;;;;;15.77;8.53;;;;;;;;;;5098719;28;20562;-64
2022/10/11 07:31:22;;;;;;;13.47;8.17;;;;;;;;;;5098580;28;20231;-64
2022/10/11 07:33:49;;;;;;;11.40;8.20;;;;;;;;;;5098695;28;20232;-64
2022/10/11 07:36:18;;;;;;;12.30;7.73;;;;;;;;;;5098521;28;20201;-64
2022/10/11 07:38:46;;;;;;;9.93;8.10;;;;;;;;;;5098141;28;20208;-64
2022/10/11 07:41:15;;;;;;;12.10;8.37;;;;;;;;;;5098650;28;20209;-64
2022/10/11 07:43:45;;;;;;;14.50;8.10;;;;;;;;;;5098364;28;20226;-64
2022/10/11 07:46:13;;;;;;;14.83;9.20;;;;;;;;;;5098074;28;20573;-64
2022/10/11 07:48:42;;;;;;;16.93;9.23;;;;;;;;;;5098035;28;20205;-64
2022/10/11 07:51:11;;;;;;;12.70;8.07;;;;;;;;;;5098113;28;20231;-64
2022/10/11 07:53:39;;;;;;;10.47;8.07;;;;;;;;;;5097738;28;20255;-64
2022/10/11 07:56:08;;;;;;;12.10;8.10;;;;;;;;;;5098127;28;20212;-63
2022/10/11 07:58:37;;;;;;;16.27;8.80;;;;;;;;;;5097821;28;20645;-64
2022/10/11 08:01:05;;;;;;;16.13;9.27;;;;;;;;;;5098194;28;20205;-64
2022/10/11 08:03:34;;;;;;;14.47;7.67;;;;;;;;;;5097615;28;20578;-65
2022/10/11 08:06:02;;;;;;;12.73;8.03;;;;;;;;;;5098191;28;20221;-65
2022/10/11 08:08:31;;;;;;;14.23;8.97;;;;;;;;;;5097494;28;20229;-64
2022/10/11 08:10:59;;;;;;;13.40;8.17;;;;;;;;;;5097907;28;20210;-65
2022/10/11 08:13:27;;;;;;;9.43;7.53;;;;;;;;;;5098058;28;20230;-63
2022/10/11 08:15:57;;;;;;;15.07;8.27;;;;;;;;;;5097878;28;20201;-63
2022/10/11 08:18:25;;;;;;;12.17;8.53;;;;;;;;;;5097779;28;20211;-63
2022/10/11 08:20:53;;;;;;;12.20;8.17;;;;;;;;;;5097612;28;20206;-64
2022/10/11 08:23:21;;;;;;;15.70;9.00;;;;;;;;;;5097280;28;20727;-65
2022/10/11 08:25:49;;;;;;;14.43;8.17;;;;;;;;;;5096848;28;20233;-63
2022/10/11 08:28:17;;;;;;;13.43;8.30;;;;;;;;;;5097809;28;20213;-63
2022/10/11 08:30:48;;;;;;;17.30;8.97;;;;;;;;;;5097445;28;20201;-63
2022/10/11 08:33:18;;;;;;;15.03;8.90;;;;;;;;;;5097771;28;20233;-64
2022/10/11 08:35:46;;;;;;;12.47;8.57;;;;;;;;;;5097481;28;20212;-64
2022/10/11 08:38:14;;;;;;;14.90;8.53;;;;;;;;;;5097241;28;20553;-65
2022/10/11 08:40:45;;;;;;;12.97;9.37;;;;;;;;;;5097589;28;20212;-64
2022/10/11 08:43:16;;;;;;;15.00;9.27;;;;;;;;;;5097577;28;20209;-64
2022/10/11 08:45:46;;;;;;;12.17;9.27;;;;;;;;;;5097571;28;20225;-65
2022/10/11 08:48:16;;;;;;;14.93;8.73;;;;;;;;;;5097614;28;20214;-63
2022/10/11 08:50:47;;;;;;;12.77;7.83;;;;;;;;;;5097575;28;20206;-64
2022/10/11 08:53:18;;;;;;;19.20;7.83;;;;;;;;;;5097127;28;20323;-64
2022/10/11 08:55:49;;;;;;;13.93;8.43;;;;;;;;;;5097453;28;20208;-64
2022/10/11 08:58:19;;;;;;;14.93;8.53;;;;;;;;;;5097431;28;20202;-65
2022/10/11 09:00:49;;;;;;;12.97;8.90;;;;;;;;;;5097020;28;20217;-64
2022/10/11 09:03:23;;;;;;;13.10;8.57;;;;;;;;;;5097203;28;20239;-65
2022/10/11 09:05:58;;;;;;;15.87;7.40;;;;;;;;;;5097362;28;20227;-64
2022/10/11 09:08:30;;;;;;;15.97;8.80;;;;;;;;;;5096941;28;20572;-65
2022/10/11 09:11:00;;;;;;;14.20;9.77;;;;;;;;;;5097065;28;20206;-65
2022/10/11 09:13:41;;;;;;;12.50;8.23;;;;;;;;;;5097792;28;20303;-64
2022/10/11 09:16:13;;;;;;;15.77;8.40;;;;;;;;;;5097112;28;20201;-64
2022/10/11 09:18:46;;;;;;;18.50;9.03;;;;;;;;;;5097360;28;20205;-65
2022/10/11 09:21:25;;;;;;;13.70;9.03;;;;;;;;;;5096884;28;20216;-65
2022/10/11 09:24:11;;;;;;;13.53;8.43;;;;;;;;;;5096751;28;20711;-64
2022/10/11 09:26:42;;;;;;;11.23;7.53;;;;;;;;;;5083958;28;20515;-63
2022/10/11 09:29:15;;;;;;;16.13;10.10;;;;;;;;;;5097262;28;20259;-63
2022/10/11 09:31:46;;;;;;;13.33;8.97;;;;;;;;;;5097221;28;20217;-64
2022/10/11 09:34:14;;;;;;;17.93;8.80;;;;;;;;;;5097000;28;20225;-63
2022/10/11 09:36:49;;;;;;;11.30;8.53;;;;;;;;;;5098070;28;20205;-63
2022/10/11 09:39:24;;;;;;;17.13;8.87;;;;;;;;;;5100279;28;20687;-63
2022/10/11 09:41:56;;;;;;;15.37;9.70;;;;;;;;;;5100443;28;20220;-63
2022/10/11 09:44:25;;;;;;;14.97;9.97;;;;;;;;;;5100457;28;20252;-63
2022/10/11 09:46:53;;;;;;;13.37;8.90;;;;;;;;;;5100329;28;20215;-65
2022/10/11 09:49:22;;;;;;;14.40;9.50;;;;;;;;;;5100634;28;20209;-65
2022/10/11 09:51:54;;;;;;;12.00;7.77;;;;;;;;;;5100231;28;20201;-65
2022/10/11 09:54:26;;;;;;;16.23;8.57;;;;;;;;;;5100154;28;20241;-63
2022/10/11 09:56:54;;;;;;;17.33;9.83;;;;;;;;;;5100205;28;20211;-65
2022/10/11 09:59:26;;;;;;;16.23;9.57;;;;;;;;;;5100161;28;20687;-65
2022/10/11 10:02:12;;;;;;;15.93;9.90;;;;;;;;;;5100030;28;20246;-65
2022/10/11 10:04:54;;;;;;;13.53;8.73;;;;;;;;;;5099762;28;20700;-65
2022/10/11 10:07:23;;;;;;;19.73;9.37;;;;;;;;;;5100049;28;20205;-65
2022/10/11 10:09:51;;;;;;;19.90;9.83;;;;;;;;;;5100112;28;20210;-65
2022/10/11 10:12:20;;;;;;;14.30;9.17;;;;;;;;;;5100170;28;20205;-65
2022/10/11 10:14:55;;;;;;;13.83;8.67;;;;;;;;;;5100115;28;20240;-65
2022/10/11 10:17:23;;;;;;;14.87;9.77;;;;;;;;;;5100042;28;20197;-65
2022/10/11 10:19:52;;;;;;;17.63;10.40;;;;;;;;;;5099753;28;20695;-63
2022/10/11 10:22:21;;;;;;;15.20;9.73;;;;;;;;;;5099869;28;20205;-65
2022/10/11 10:24:51;;;;;;;15.60;9.40;;;;;;;;;;5099494;28;20232;-65
2022/10/11 10:27:21;;;;;;;15.60;9.23;;;;;;;;;;5099571;28;20550;-66
2022/10/11 10:30:17;;;;;;;13.37;9.17;;;;;;;;;;5099823;28;20565;-65
2022/10/11 10:32:47;;;;;;;18.60;9.17;;;;;;;;;;5064495;28;20209;-66
2022/10/11 10:35:22;;;;;;;17.40;9.77;;;;;;;;;;5099756;28;20225;-66
2022/10/11 10:37:52;;;;;;;15.97;9.30;;;;;;;;;;5099382;28;20216;-66
2022/10/11 10:40:24;;;;;;;12.50;8.93;;;;;;;;;;5099741;28;20211;-66
2022/10/11 10:42:52;;;;;;;15.03;9.77;;;;;;;;;;5086501;28;20214;-65
2022/10/11 10:45:24;;;;;;;15.17;8.37;;;;;;;;;;5099070;28;20681;-65
2022/10/11 10:47:58;;;;;;;14.43;9.03;;;;;;;;;;5099015;28;20202;-66
2022/10/11 10:50:27;;;;;;;12.07;8.90;;;;;;;;;;5099212;28;20222;-65
2022/10/11 10:53:01;;;;;;;15.27;9.20;;;;;;;;;;5099040;28;20238;-65
2022/10/11 10:55:33;;;;;;;16.17;8.33;;;;;;;;;;5098951;28;20202;-65
2022/10/11 10:58:06;;;;;;;15.23;9.13;;;;;;;;;;5099347;28;20214;-66
2022/10/11 11:00:39;;;;;;;11.53;8.70;;;;;;;;;;5098971;28;20227;-65
2022/10/11 11:03:09;;;;;;;13.83;8.10;;;;;;;;;;5099017;28;20201;-66
2022/10/11 11:05:41;;;;;;;12.33;8.33;;;;;;;;;;5099172;28;20233;-65
2022/10/11 11:08:14;;;;;;;11.70;8.47;;;;;;;;;;5098823;28;20233;-66
2022/10/11 11:10:48;;;;;;;17.23;7.80;;;;;;;;;;5098973;28;20214;-65
2022/10/11 11:13:23;;;;;;;12.77;8.57;;;;;;;;;;5098687;28;20209;-64
2022/10/11 11:15:55;;;;;;;11.63;8.60;;;;;;;;;;5098725;28;20280;-63
2022/10/11 11:18:28;;;;;;;15.17;8.87;;;;;;;;;;5099072;28;20212;-65
2022/10/11 11:21:05;;;;;;;12.93;8.00;;;;;;;;;;5098748;28;20216;-65
2022/10/11 11:23:38;;;;;;;13.97;7.57;;;;;;;;;;5098640;28;20236;-65
2022/10/11 11:26:11;;;;;;;14.00;7.57;;;;;;;;;;5098303;28;20243;-65
2022/10/11 11:28:52;;;;;;;11.40;6.80;;;;;;;;;;5099097;28;20209;-65
2022/10/11 11:31:32;;;;;;;12.17;6.70;;;;;;;;;;5098726;28;20214;-65
2022/10/11 11:34:03;;;;;;;12.93;6.47;;;;;;;;;;5098553;28;20220;-65
2022/10/11 11:36:36;;;;;;;10.93;6.50;;;;;;;;;;5098064;28;20206;-65
2022/10/11 11:39:06;;;;;;;15.60;6.77;;;;;;;;;;5098261;28;20231;-65
2022/10/11 11:41:37;;;;;;;17.17;6.90;;;;;;;;;;5098106;28;20259;-65
2022/10/11 11:44:09;;;;;;;15.90;6.40;;;;;;;;;;5098382;28;20229;-64
2022/10/11 11:46:39;;;;;;;14.53;6.23;;;;;;;;;;5098112;28;20711;-65
2022/10/11 11:49:12;;;;;;;11.60;6.17;;;;;;;;;;5098141;28;20212;-65
2022/10/11 11:51:42;;;;;;;8.87;5.70;;;;;;;;;;5098151;28;20201;-65
2022/10/11 11:54:17;;;;;;;9.30;5.13;;;;;;;;;;5097910;28;20248;-65
2022/10/11 11:56:51;;;;;;;12.13;6.27;;;;;;;;;;5097937;28;20691;-65
2022/10/11 11:59:22;;;;;;;8.30;5.93;;;;;;;;;;5097405;28;20572;-65
2022/10/11 12:01:55;;;;;;;7.27;5.17;;;;;;;;;;5096981;28;20206;-65
2022/10/11 12:04:27;;;;;;;10.97;5.93;;;;;;;;;;5097594;28;20225;-65
2022/10/11 12:07:05;;;;;;;10.50;5.40;;;;;;;;;;5096936;28;20229;-65
2022/10/11 12:09:50;;;;;;;11.73;6.00;;;;;;;;;;5097326;28;20491;-65
2022/10/11 12:12:29;;;;;;;10.43;5.70;;;;;;;;;;5097283;28;20326;-65
2022/10/11 12:15:05;;;;;;;15.20;6.57;;;;;;;;;;5097485;28;20231;-65
2022/10/11 12:17:32;;;;;;;15.97;6.37;;;;;;;;;;5097677;28;20282;-65
2022/10/11 12:20:13;;;;;;;10.67;5.40;;;;;;;;;;5097484;28;20224;-65
2022/10/11 12:22:57;;;;;;;9.93;5.83;;;;;;;;;;5096864;28;20224;-65
2022/10/11 12:25:42;;;;;;;10.33;5.97;;;;;;;;;;5095776;28;20211;-65
2022/10/11 12:28:29;;;;;;;8.13;5.30;;;;;;;;;;5097222;28;20229;-65
2022/10/11 12:31:05;;;;;;;11.20;5.67;;;;;;;;;;5097175;28;20296;-65
2022/10/11 12:33:49;;;;;;;9.10;5.60;;;;;;;;;;5097304;28;20259;-65
2022/10/11 12:36:32;;;;;;;8.77;6.17;;;;;;;;;;5096983;28;20308;-65
2022/10/11 12:39:19;;;;;;;10.03;6.00;;;;;;;;;;5097478;28;20216;-65
2022/10/11 12:41:52;;;;;;;10.23;5.37;;;;;;;;;;5097283;28;20216;-65
2022/10/11 12:44:21;;;;;;;13.03;6.10;;;;;;;;;;5097508;28;20312;-66
2022/10/11 12:47:06;;;;;;;9.60;5.23;;;;;;;;;;5097271;28;20236;-65
2022/10/11 12:49:45;;;;;;;11.33;5.13;;;;;;;;;;5097493;28;20283;-65
2022/10/11 12:52:24;;;;;;;9.33;5.40;;;;;;;;;;5096618;28;20212;-65
2022/10/11 12:55:06;;;;;;;17.30;6.30;;;;;;;;;;5096970;28;20247;-65
2022/10/11 12:58:06;;;;;;;9.77;5.30;;;;;;;;;;5094715;28;20237;-64
2022/10/11 13:00:42;;;;;;;12.27;5.20;;;;;;;;;;5096916;28;20683;-64
2022/10/11 13:03:27;;;;;;;9.73;5.87;;;;;;;;;;5097016;28;20212;-64
2022/10/11 13:05:59;;;;;;;10.13;5.07;;;;;;;;;;5097019;28;20205;-64
2022/10/11 13:08:30;;;;;;;15.23;5.67;;;;;;;;;;5096525;28;20762;-64
2022/10/11 13:11:02;;;;;;;8.03;4.80;;;;;;;;;;5094710;28;20198;-64
2022/10/11 13:13:32;;;;;;;6.77;4.13;;;;;;;;;;5100524;28;20240;-63
2022/10/11 13:16:04;;;;;;;8.97;3.77;;;;;;;;;;5100517;28;20194;-63
2022/10/11 13:18:34;;;;;;;9.60;4.47;;;;;;;;;;5095346;28;20299;-65
2022/10/11 13:21:02;;;;;;;6.83;4.20;;;;;;;;;;5100350;28;20236;-64
2022/10/11 13:23:35;;;;;;;10.13;4.77;;;;;;;;;;5100177;28;20226;-64
2022/10/11 13:26:03;;;;;;;9.73;4.60;;;;;;;;;;5100276;28;20202;-65
2022/10/11 13:28:31;;;;;;;9.07;5.73;;;;;;;;;;5090171;28;20302;-64
2022/10/11 13:31:04;;;;;;;8.07;4.70;;;;;;;;;;5100506;28;20212;-65
2022/10/11 13:33:33;;;;;;;14.17;4.87;;;;;;;;;;5100506;28;20221;-64
2022/10/11 13:36:03;;;;;;;10.07;4.90;;;;;;;;;;5100225;28;20206;-64
2022/10/11 13:38:33;;;;;;;10.20;6.07;;;;;;;;;;5100556;28;20197;-65
2022/10/11 13:41:03;;;;;;;6.33;4.70;;;;;;;;;;5100140;28;20206;-65
2022/10/11 13:43:31;;;;;;;7.40;4.40;;;;;;;;;;5100197;28;20225;-65
2022/10/11 13:46:00;;;;;;;8.47;4.77;;;;;;;;;;5100274;28;20659;-64
2022/10/11 13:48:28;;;;;;;9.23;4.77;;;;;;;;;;5100231;28;20226;-64
2022/10/11 13:51:06;;;;;;;9.10;4.60;;;;;;;;;;5100071;28;20665;-65
2022/10/11 13:53:35;;;;;;;7.60;4.77;;;;;;;;;;5099760;28;20354;-64
2022/10/11 13:56:04;;;;;;;9.90;4.40;;;;;;;;;;5099799;28;20216;-65
2022/10/11 13:58:34;;;;;;;7.63;4.47;;;;;;;;;;5100182;28;20223;-64
2022/10/11 14:01:03;;;;;;;14.07;5.10;;;;;;;;;;5100204;28;20217;-64
2022/10/11 14:03:37;;;;;;;5.93;4.60;;;;;;;;;;5099670;28;20312;-64
2022/10/11 14:06:07;;;;;;;5.87;4.20;;;;;;;;;;5099927;28;20205;-64
2022/10/11 14:08:37;;;;;;;10.37;4.30;;;;;;;;;;5099606;28;20586;-64
2022/10/11 14:11:06;;;;;;;6.50;3.80;;;;;;;;;;5099515;28;20212;-64
2022/10/11 14:13:35;;;;;;;12.13;4.40;;;;;;;;;;5099594;28;20247;-64
2022/10/11 14:16:08;;;;;;;8.47;4.00;;;;;;;;;;5099427;28;20568;-64
2022/10/11 14:18:41;;;;;;;6.73;3.73;;;;;;;;;;5099737;28;20205;-64
2022/10/11 14:21:28;;;;;;;10.43;3.77;;;;;;;;;;5099382;28;20205;-64
2022/10/11 14:23:56;;;;;;;9.77;4.37;;;;;;;;;;5098220;28;20232;-64
2022/10/11 14:26:25;;;;;;;12.10;3.60;;;;;;;;;;5099212;28;20213;-64
2022/10/11 14:28:56;;;;;;;9.37;3.67;;;;;;;;;;5099985;28;20241;-64
2022/10/11 14:31:24;;;;;;;6.67;2.73;;;;;;;;;;5099465;28;20221;-64
2022/10/11 14:33:52;;;;;;;7.27;3.43;;;;;;;;;;5099063;28;20225;-64
2022/10/11 14:36:21;;;;;;;5.30;3.33;;;;;;;;;;5098901;28;20578;-64
2022/10/11 14:38:51;;;;;;;8.97;3.20;;;;;;;;;;5099047;28;20201;-64
2022/10/11 14:41:19;;;;;;;11.10;3.93;;;;;;;;;;5099136;28;20206;-64
2022/10/11 14:43:47;;;;;;;10.23;3.90;;;;;;;;;;5098905;28;20704;-64
2022/10/11 14:46:19;;;;;;;7.93;3.10;;;;;;;;;;5099351;28;20209;-64
2022/10/11 14:48:47;;;;;;;7.70;2.97;;;;;;;;;;5099103;28;20234;-64
2022/10/11 14:51:25;;;;;;;5.43;3.43;;;;;;;;;;5098874;28;20209;-64
2022/10/11 14:53:54;;;;;;;8.47;3.20;;;;;;;;;;5098645;28;20245;-63